Time;durP1;ratioP1;P1;durP2;ratioP2;P2;SDS_P1;SDS_P2;PMS_P1;PMS_P2;Temp;Humidity;BMP_temperature;BMP_pressure;BME280_temperature;BME280_humidity;BME280_pressure;Samples;Min_cycle;Max_cycle;Signal;HPM_P1;HPM_P2
2023/05/05 00:02:02;;;;;;;9.77;7.35;;;;;;;21.22;56.92;101439.38;143722;602;47002;-74
2023/05/05 00:04:28;;;;;;;10.02;6.87;;;;;;;21.25;56.94;101429.87;143728;573;46023;-74
2023/05/05 00:06:54;;;;;;;10.95;6.32;;;;;;;21.26;57.09;101435.06;143722;576;47004;-75
2023/05/05 00:09:21;;;;;;;10.38;7.12;;;;;;;21.27;57.45;101435.91;143726;588;46006;-75
2023/05/05 00:11:47;;;;;;;9.85;6.30;;;;;;;21.27;56.93;101427.72;143727;706;47002;-75
2023/05/05 00:14:14;;;;;;;10.35;6.85;;;;;;;21.27;57.03;101423.06;143727;603;46010;-75
2023/05/05 00:16:41;;;;;;;7.90;6.12;;;;;;;21.27;56.48;101420.34;143725;593;47002;-74
2023/05/05 00:19:07;;;;;;;7.68;6.37;;;;;;;21.28;57.19;101415.69;143728;567;46006;-74
2023/05/05 00:21:33;;;;;;;7.28;6.50;;;;;;;21.26;57.45;101406.94;143726;598;47002;-74
2023/05/05 00:24:00;;;;;;;8.02;5.97;;;;;;;21.26;56.92;101412.41;143726;574;46008;-74
2023/05/05 00:26:26;;;;;;;7.80;6.72;;;;;;;21.23;57.05;101402.78;143724;577;47004;-74
2023/05/05 00:28:52;;;;;;;9.82;7.20;;;;;;;21.21;57.38;101383.09;143727;624;46006;-76
2023/05/05 00:31:19;;;;;;;10.10;7.32;;;;;;;21.22;57.63;101394.84;143726;744;49000;-74
2023/05/05 00:33:45;;;;;;;9.23;7.35;;;;;;;21.20;57.43;101392.38;143727;582;46027;-74
2023/05/05 00:36:12;;;;;;;13.13;7.20;;;;;;;21.20;57.36;101385.00;143723;572;47004;-74
2023/05/05 00:38:38;;;;;;;10.68;7.50;;;;;;;21.21;57.36;101380.34;143725;598;46006;-74
2023/05/05 00:41:05;;;;;;;8.25;7.28;;;;;;;21.21;57.01;101388.56;143727;588;47004;-75
2023/05/05 00:43:31;;;;;;;8.57;6.95;;;;;;;21.17;57.04;101393.72;143724;685;47004;-75
2023/05/05 00:46:27;;;;;;;8.32;7.15;;;;;;;21.08;57.32;101400.69;143723;569;47004;-73
2023/05/05 00:48:54;;;;;;;10.00;7.00;;;;;;;21.08;56.81;101400.69;143727;588;46007;-74
2023/05/05 00:51:21;;;;;;;11.05;6.55;;;;;;;21.10;56.79;101405.91;143727;600;47004;-73
2023/05/05 00:53:49;;;;;;;8.95;6.82;;;;;;;21.11;56.61;101402.91;143725;572;47004;-70
2023/05/05 00:56:16;;;;;;;7.65;6.12;;;;;;;21.11;56.73;101411.09;143728;712;46009;-72
2023/05/05 00:58:43;;;;;;;10.38;6.80;;;;;;;21.13;56.39;101417.13;143728;580;46006;-71
2023/05/05 01:01:10;;;;;;;8.15;6.32;;;;;;;21.15;56.32;101405.97;143727;656;47000;-75
2023/05/05 01:03:38;;;;;;;8.48;6.07;;;;;;;21.15;55.91;101420.44;143725;719;47010;-75
2023/05/05 01:06:40;;;;;;;11.35;6.57;;;;;;;21.16;56.11;101415.81;143723;716;47002;-76
2023/05/05 01:09:38;;;;;;;7.40;5.97;;;;;;;21.15;56.38;101414.97;143726;687;46006;-74
2023/05/05 01:12:19;;;;;;;8.73;6.03;;;;;;;21.14;56.60;101410.59;143729;588;46010;-74
2023/05/05 01:15:36;;;;;;;8.18;6.57;;;;;;;21.12;57.21;101406.47;143725;793;47010;-73
2023/05/05 01:18:31;;;;;;;9.93;5.85;;;;;;;21.10;57.22;101406.72;143723;568;47004;-71
2023/05/05 01:21:30;;;;;;;8.68;6.65;;;;;;;21.09;57.52;101398.78;143724;572;47008;-74
2023/05/05 01:24:41;;;;;;;8.88;6.62;;;;;;;21.09;57.10;101398.78;143730;603;46008;-73
2023/05/05 01:28:07;;;;;;;7.07;6.03;;;;;;;21.06;57.27;101391.94;143724;704;47013;-73
2023/05/05 01:31:08;;;;;;;10.05;7.00;;;;;;;21.03;57.28;101387.78;143723;567;47006;-73
2023/05/05 01:33:42;;;;;;;9.10;6.28;;;;;;;21.03;57.55;101376.84;143727;586;47008;-73
2023/05/05 01:36:21;;;;;;;10.27;6.40;;;;;;;21.02;57.47;101377.94;143725;567;47004;-74
2023/05/05 01:38:55;;;;;;;9.20;6.65;;;;;;;21.02;57.01;101379.84;143724;621;46012;-74
2023/05/05 01:41:27;;;;;;;7.75;6.60;;;;;;;21.02;57.77;101372.47;143722;618;47006;-74
2023/05/05 01:43:56;;;;;;;9.35;6.95;;;;;;;21.00;57.68;101362.87;143729;585;46008;-74
2023/05/05 01:46:23;;;;;;;7.87;6.37;;;;;;;20.98;57.14;101357.69;143730;599;46008;-73
2023/05/05 01:48:52;;;;;;;10.20;6.93;;;;;;;20.98;57.35;101352.22;143723;651;47012;-74
2023/05/05 01:51:22;;;;;;;9.20;6.72;;;;;;;20.99;57.63;101344.84;143723;595;47006;-73
2023/05/05 01:53:52;;;;;;;7.03;6.05;;;;;;;20.94;58.27;101342.88;143727;663;46008;-73
2023/05/05 01:56:21;;;;;;;8.18;6.28;;;;;;;20.92;57.60;101331.41;143725;757;47004;-73
2023/05/05 01:58:48;;;;;;;10.30;5.75;;;;;;;20.92;57.58;101322.34;143726;776;47010;-73
2023/05/05 02:01:17;;;;;;;5.37;4.25;;;;;;;20.90;56.01;101326.19;143723;594;47006;-72
2023/05/05 02:03:46;;;;;;;10.15;5.75;;;;;;;20.90;55.94;101339.00;143727;595;46922;-73
2023/05/05 02:06:15;;;;;;;9.77;6.50;;;;;;;20.90;56.27;101334.38;143724;592;47004;-72
2023/05/05 02:08:43;;;;;;;12.45;6.10;;;;;;;20.89;56.28;101338.19;143726;863;46012;-72
2023/05/05 02:11:11;;;;;;;10.15;7.18;;;;;;;20.88;56.47;101333.81;143722;586;47007;-73
2023/05/05 02:13:41;;;;;;;9.02;6.75;;;;;;;20.86;56.63;101337.84;143725;686;47002;-73
2023/05/05 02:16:09;;;;;;;7.10;6.40;;;;;;;20.84;56.33;101343.56;143725;597;47004;-73
2023/05/05 02:18:37;;;;;;;11.48;6.85;;;;;;;20.83;56.97;101352.84;143729;590;46013;-73
2023/05/05 02:21:04;;;;;;;9.85;6.87;;;;;;;20.82;57.14;101344.91;143723;972;47006;-73
2023/05/05 02:23:31;;;;;;;9.85;6.80;;;;;;;20.80;56.85;101347.06;143728;588;46008;-72
2023/05/05 02:26:05;;;;;;;8.18;6.35;;;;;;;20.77;56.98;101356.56;143726;768;47004;-73
2023/05/05 02:28:48;;;;;;;7.70;6.45;;;;;;;20.77;56.64;101367.50;143723;579;47004;-73
2023/05/05 02:31:17;;;;;;;10.10;6.50;;;;;;;20.75;56.65;101358.69;143722;594;47006;-72
2023/05/05 02:33:46;;;;;;;12.10;7.12;;;;;;;20.73;56.46;101364.41;143727;963;46023;-73
2023/05/05 02:36:24;;;;;;;8.45;6.45;;;;;;;20.72;56.31;101359.22;143725;594;47004;-73
2023/05/05 02:39:01;;;;;;;7.32;6.03;;;;;;;20.70;56.19;101366.84;143723;767;47006;-72
2023/05/05 02:41:30;;;;;;;10.38;6.32;;;;;;;20.70;56.29;101366.84;143722;593;47006;-72
2023/05/05 02:43:58;;;;;;;8.02;6.22;;;;;;;20.71;56.45;101360.28;143726;578;46008;-72
2023/05/05 02:46:25;;;;;;;15.18;6.37;;;;;;;20.71;56.44;101357.56;143718;585;47008;-73
2023/05/05 02:48:51;;;;;;;10.75;7.30;;;;;;;20.71;56.73;101366.56;143727;955;46013;-73
2023/05/05 02:51:18;;;;;;;10.32;6.90;;;;;;;20.73;56.89;101371.78;143726;579;46006;-72
2023/05/05 02:53:44;;;;;;;10.02;6.95;;;;;;;20.73;56.57;101360.88;143724;572;47008;-73
2023/05/05 02:56:41;;;;;;;11.32;7.53;;;;;;;20.74;57.18;101366.06;143728;717;46009;-73
2023/05/05 02:59:56;;;;;;;11.07;7.28;;;;;;;20.73;57.49;101364.41;143723;827;47008;-74
2023/05/05 03:02:43;;;;;;;;;;;;;;;20.76;57.35;101360.38;143725;978;47007;-75
2023/05/05 03:05:31;;;;;;;10.55;6.95;;;;;;;20.75;57.77;101364.16;143731;585;46031;-74
2023/05/05 03:08:17;;;;;;;7.43;6.72;;;;;;;20.75;57.36;101370.47;143725;597;47006;-74
2023/05/05 03:11:03;;;;;;;12.48;7.47;;;;;;;20.75;57.70;101369.63;143725;820;47011;-75
2023/05/05 03:13:33;;;;;;;8.55;7.55;;;;;;;20.74;57.75;101373.41;143724;579;47006;-74
2023/05/05 03:16:05;;;;;;;12.63;7.37;;;;;;;20.73;57.03;101369.06;143727;586;46008;-74
2023/05/05 03:18:36;;;;;;;8.02;6.50;;;;;;;20.74;57.13;101365.22;143725;587;47004;-74
2023/05/05 03:21:07;;;;;;;9.32;6.72;;;;;;;20.75;57.31;101380.53;143727;712;46012;-75
2023/05/05 03:23:35;;;;;;;8.25;6.15;;;;;;;20.75;57.54;101375.94;143723;578;47006;-74
2023/05/05 03:26:01;;;;;;;8.43;6.40;;;;;;;20.74;57.09;101371.53;143727;572;46009;-74
2023/05/05 03:28:27;;;;;;;11.45;6.72;;;;;;;20.77;57.62;101370.22;143725;603;47006;-74
2023/05/05 03:30:54;;;;;;;8.48;7.03;;;;;;;20.76;57.96;101368.56;143725;596;47010;-71
2023/05/05 03:33:20;;;;;;;11.00;7.07;;;;;;;20.76;57.40;101357.66;143724;586;47011;-75
2023/05/05 03:35:46;;;;;;;10.75;6.75;;;;;;;20.78;57.74;101379.25;143727;570;46922;-75
2023/05/05 03:38:13;;;;;;;10.32;6.70;;;;;;;20.78;57.94;101381.97;143724;662;47006;-75
2023/05/05 03:40:39;;;;;;;9.27;7.30;;;;;;;20.79;57.86;101386.37;143725;639;47011;-75
2023/05/05 03:43:06;;;;;;;8.70;6.60;;;;;;;20.79;58.09;101384.44;143726;580;47012;-75
2023/05/05 03:45:32;;;;;;;7.97;6.80;;;;;;;20.76;57.53;101395.87;143725;588;47008;-75
2023/05/05 03:47:59;;;;;;;8.45;7.22;;;;;;;20.77;57.89;101391.25;143729;702;46009;-75
2023/05/05 03:50:25;;;;;;;9.80;6.65;;;;;;;20.79;57.53;101391.81;143728;871;46012;-75
2023/05/05 03:52:51;;;;;;;7.93;5.80;;;;;;;20.81;57.78;101395.12;143721;846;48911;-75
2023/05/05 03:55:18;;;;;;;6.78;5.82;;;;;;;20.80;57.63;101385.28;143726;588;46922;-75
2023/05/05 03:57:44;;;;;;;8.05;5.03;;;;;;;20.76;56.94;101382.22;143727;572;47006;-74
2023/05/05 04:00:12;;;;;;;8.73;5.72;;;;;;;20.77;57.64;101383.06;143725;936;47010;-75
2023/05/05 04:02:38;;;;;;;11.10;5.90;;;;;;;20.80;57.45;101383.38;143724;880;47006;-76
2023/05/05 04:05:04;;;;;;;7.05;3.83;;;;;;;20.81;56.56;101376.84;143727;692;46008;-75
2023/05/05 04:07:31;;;;;;;6.35;5.00;;;;;;;20.81;57.05;101367.84;143725;654;47004;-75
2023/05/05 04:09:57;;;;;;;9.23;6.07;;;;;;;20.82;57.25;101370.31;143726;573;46010;-75
2023/05/05 04:12:24;;;;;;;7.65;6.15;;;;;;;20.82;56.92;101362.13;143724;957;47004;-75
2023/05/05 04:14:50;;;;;;;6.95;5.72;;;;;;;20.83;57.72;101365.66;143727;583;46006;-74
2023/05/05 04:17:16;;;;;;;5.22;3.42;;;;;;;20.82;56.77;101367.56;143725;726;47002;-75
2023/05/05 04:19:43;;;;;;;6.53;3.15;;;;;;;20.80;57.37;101372.44;143727;593;46010;-75
2023/05/05 04:22:09;;;;;;;7.72;3.80;;;;;;;20.82;57.44;101381.22;143727;878;46008;-74
2023/05/05 04:24:36;;;;;;;7.87;4.32;;;;;;;20.82;59.10;101373.03;143724;587;47924;-75
2023/05/05 04:27:02;;;;;;;7.70;5.90;;;;;;;20.84;59.82;101380.97;143725;568;47002;-76
2023/05/05 04:29:28;;;;;;;10.23;6.68;;;;;;;20.85;59.94;101385.34;143723;572;47008;-76
2023/05/05 04:31:55;;;;;;;7.62;6.45;;;;;;;20.87;60.04;101380.47;143720;602;47004;-75
2023/05/05 04:34:22;;;;;;;9.25;5.62;;;;;;;20.89;59.67;101381.03;143724;588;46923;-75
2023/05/05 04:36:48;;;;;;;5.32;4.03;;;;;;;20.86;58.56;101378.81;143724;589;47004;-75
2023/05/05 04:39:14;;;;;;;7.47;3.70;;;;;;;20.87;58.70;101377.72;143724;857;46010;-75
2023/05/05 04:41:41;;;;;;;5.50;4.03;;;;;;;20.87;58.26;101386.75;143721;567;47004;-76
2023/05/05 04:44:07;;;;;;;6.62;4.28;;;;;;;20.87;58.80;101383.19;143725;569;46006;-74
2023/05/05 04:46:34;;;;;;;5.10;4.28;;;;;;;20.83;58.32;101369.22;143723;598;47004;-74
2023/05/05 04:49:00;;;;;;;7.18;4.87;;;;;;;20.79;58.84;101376.25;143725;768;46010;-73
2023/05/05 04:51:27;;;;;;;8.77;6.87;;;;;;;20.79;59.17;101383.63;143723;827;47004;-73
2023/05/05 04:53:53;;;;;;;7.18;6.15;;;;;;;20.79;60.63;101400.03;143724;567;47006;-74
2023/05/05 04:56:19;;;;;;;9.68;6.55;;;;;;;20.80;60.99;101390.75;143725;594;47002;-73
2023/05/05 04:58:46;;;;;;;12.50;7.25;;;;;;;20.82;61.24;101388.59;143723;829;47008;-75
2023/05/05 05:01:12;;;;;;;10.55;6.82;;;;;;;20.81;61.17;101390.50;143723;567;47002;-74
2023/05/05 05:03:39;;;;;;;10.05;7.47;;;;;;;20.83;61.39;101401.16;143721;587;47004;-75
2023/05/05 05:06:06;;;;;;;10.45;7.40;;;;;;;20.81;62.04;101401.41;143721;902;47002;-73
2023/05/05 05:08:32;;;;;;;8.70;7.80;;;;;;;20.84;62.55;101411.00;143731;579;47009;-74
2023/05/05 05:10:59;;;;;;;12.32;7.28;;;;;;;20.84;62.55;101402.81;143728;583;47004;-74
2023/05/05 05:13:25;;;;;;;8.38;6.87;;;;;;;20.85;62.42;101418.09;143730;584;47006;-74
2023/05/05 05:15:51;;;;;;;9.15;7.55;;;;;;;20.88;62.18;101420.34;143731;643;47002;-72
2023/05/05 05:18:18;;;;;;;12.68;6.82;;;;;;;20.86;62.02;101422.50;143731;567;47004;-72
2023/05/05 05:20:45;;;;;;;9.50;6.53;;;;;;;20.68;62.28;101426.31;143730;602;47002;-71
2023/05/05 05:23:11;;;;;;;9.93;8.93;;;;;;;20.67;61.75;101433.66;143731;573;46006;-71
2023/05/05 05:25:37;;;;;;;9.00;6.55;;;;;;;20.73;62.47;101435.38;143730;597;47002;-71
2023/05/05 05:28:04;;;;;;;9.40;6.82;;;;;;;20.77;62.48;101430.28;143730;581;46921;-71
2023/05/05 05:30:31;;;;;;;8.80;7.28;;;;;;;20.78;63.25;101431.13;143727;584;47004;-71
2023/05/05 05:33:00;;;;;;;8.15;7.35;;;;;;;20.80;63.20;101428.97;143726;613;47006;-71
2023/05/05 05:35:26;;;;;;;9.90;7.05;;;;;;;20.82;63.34;101419.44;143731;572;47004;-71
2023/05/05 05:37:53;;;;;;;8.43;6.87;;;;;;;20.83;63.26;101429.28;143732;586;46010;-71
2023/05/05 05:40:20;;;;;;;9.85;6.35;;;;;;;20.87;62.30;101429.59;143732;588;47002;-71
2023/05/05 05:42:46;;;;;;;7.78;6.97;;;;;;;20.83;62.29;101425.72;143731;594;46006;-71
2023/05/05 05:45:12;;;;;;;12.63;6.97;;;;;;;20.80;62.18;101420.78;143735;590;46006;-71
2023/05/05 05:47:39;;;;;;;8.00;6.40;;;;;;;20.84;62.33;101427.38;143727;705;47011;-71
2023/05/05 05:50:06;;;;;;;10.00;6.85;;;;;;;20.88;63.14;101420.34;143730;601;47004;-71
2023/05/05 05:52:32;;;;;;;10.93;7.10;;;;;;;20.75;63.37;101413.28;143724;569;47006;-71
2023/05/05 05:54:59;;;;;;;10.43;7.55;;;;;;;20.66;62.78;101425.72;143731;572;47002;-71
2023/05/05 05:57:26;;;;;;;8.55;7.50;;;;;;;20.76;63.48;101425.91;143733;604;46010;-70
2023/05/05 05:59:53;;;;;;;10.48;7.60;;;;;;;20.85;63.43;101431.75;143733;583;47004;-67
2023/05/05 06:02:20;;;;;;;8.73;6.80;;;;;;;20.93;63.03;101419.59;143729;574;47006;-67
2023/05/05 06:04:46;;;;;;;8.52;6.93;;;;;;;20.95;62.89;101425.62;143732;592;47004;-71
2023/05/05 06:07:13;;;;;;;12.02;7.80;;;;;;;20.91;62.58;101419.84;143724;599;47010;-70
2023/05/05 06:09:40;;;;;;;13.25;7.72;;;;;;;20.90;62.27;101426.37;143721;590;47005;-71
2023/05/05 06:12:06;;;;;;;8.90;7.18;;;;;;;20.96;62.95;101422.66;143722;588;46006;-71
2023/05/05 06:14:32;;;;;;;8.70;6.93;;;;;;;21.02;62.34;101429.00;143723;595;47004;-71
2023/05/05 06:16:59;;;;;;;16.15;10.30;;;;;;;21.08;63.16;101410.78;143722;600;47008;-71
2023/05/05 06:19:25;;;;;;;13.00;7.95;;;;;;;21.12;62.02;101417.41;143721;596;47004;-71
2023/05/05 06:21:52;;;;;;;10.75;7.43;;;;;;;21.16;62.23;101413.09;143725;592;46006;-71
2023/05/05 06:24:18;;;;;;;13.77;8.50;;;;;;;21.18;61.24;101413.66;143726;582;47002;-71
2023/05/05 06:26:45;;;;;;;12.88;8.35;;;;;;;21.21;61.39;101410.41;143723;572;47010;-70
2023/05/05 06:29:11;;;;;;;14.70;9.48;;;;;;;21.22;60.84;101411.25;143723;592;47004;-70
2023/05/05 06:31:38;;;;;;;7.50;5.82;;;;;;;21.16;58.72;101416.63;143723;621;46007;-70
2023/05/05 06:34:04;;;;;;;7.57;5.40;;;;;;;21.19;57.85;101410.69;143725;632;47004;-71
2023/05/05 06:36:31;;;;;;;7.30;4.85;;;;;;;21.22;56.88;101409.31;143723;573;47922;-71
2023/05/05 06:38:57;;;;;;;14.75;11.27;;;;;;;21.20;57.64;101415.06;143722;973;47004;-71
2023/05/05 06:41:24;;;;;;;12.23;7.37;;;;;;;21.17;57.88;101406.56;143724;586;46923;-71
2023/05/05 06:43:50;;;;;;;12.35;5.45;;;;;;;21.10;56.17;101411.38;143725;594;47004;-71
2023/05/05 06:46:16;;;;;;;18.67;13.23;;;;;;;21.07;56.82;101409.13;143723;589;47010;-70
2023/05/05 06:48:43;;;;;;;12.48;6.93;;;;;;;21.12;57.32;101415.47;143722;602;47004;-71
2023/05/05 06:51:09;;;;;;;6.53;5.75;;;;;;;21.19;57.18;101407.09;143724;588;47000;-73
2023/05/05 06:53:35;;;;;;;6.75;5.55;;;;;;;21.24;56.98;101403.63;143726;580;47000;-72
2023/05/05 06:56:02;;;;;;;9.23;5.62;;;;;;;21.26;58.38;101404.22;143724;580;46010;-72
2023/05/05 06:58:28;;;;;;;13.60;9.43;;;;;;;21.26;58.36;101396.81;143726;577;46008;-71
2023/05/05 07:00:55;;;;;;;7.05;5.50;;;;;;;21.28;56.79;101385.63;143723;607;46007;-71
2023/05/05 07:03:21;;;;;;;8.40;5.82;;;;;;;21.29;55.79;101409.13;143728;585;46019;-71
2023/05/05 07:05:47;;;;;;;7.03;5.70;;;;;;;21.31;54.95;101415.19;143722;567;47010;-72
2023/05/05 07:08:13;;;;;;;8.20;5.35;;;;;;;21.33;55.02;101399.34;143721;604;47004;-72
2023/05/05 07:10:42;;;;;;;9.27;5.25;;;;;;;21.35;55.18;101411.72;143725;572;46006;-71
2023/05/05 07:13:09;;;;;;;9.95;5.22;;;;;;;21.36;55.35;101412.53;143722;579;47002;-71
2023/05/05 07:15:35;;;;;;;8.18;5.05;;;;;;;21.37;55.18;101425.09;143725;595;46009;-72
2023/05/05 07:18:01;;;;;;;9.00;5.20;;;;;;;21.36;55.53;101424.25;143724;706;47002;-71
2023/05/05 07:20:28;;;;;;;7.18;5.47;;;;;;;21.34;56.28;101418.25;143724;593;47006;-70
2023/05/05 07:22:54;;;;;;;5.18;4.10;;;;;;;21.36;55.84;101428.91;143728;587;46006;-71
2023/05/05 07:25:20;;;;;;;7.37;4.10;;;;;;;21.39;56.35;101436.59;143723;584;47010;-71
2023/05/05 07:27:47;;;;;;;6.15;4.80;;;;;;;21.40;56.33;101434.69;143722;590;47004;-71
2023/05/05 07:30:13;;;;;;;6.43;4.95;;;;;;;21.36;56.79;101432.47;143726;580;46006;-71
2023/05/05 07:32:40;;;;;;;6.22;3.97;;;;;;;21.38;56.27;101440.41;143722;741;47002;-72
2023/05/05 07:35:07;;;;;;;11.52;7.62;;;;;;;21.23;58.82;101451.97;143725;577;46922;-68
2023/05/05 07:37:33;;;;;;;10.98;7.78;;;;;;;21.20;59.17;101456.03;143725;567;46009;-71
2023/05/05 07:39:59;;;;;;;11.80;8.55;;;;;;;21.25;59.73;101455.28;143725;575;46006;-71
2023/05/05 07:42:26;;;;;;;11.63;7.75;;;;;;;21.25;60.13;101458.00;143727;586;47002;-70
2023/05/05 07:44:52;;;;;;;11.12;9.02;;;;;;;21.22;60.25;101466.69;143723;573;46922;-71
2023/05/05 07:47:18;;;;;;;13.93;8.57;;;;;;;21.20;60.21;101466.12;143718;754;47004;-70
2023/05/05 07:49:45;;;;;;;16.85;9.18;;;;;;;21.17;60.65;101472.12;143722;600;46006;-71
2023/05/05 07:52:11;;;;;;;16.00;8.27;;;;;;;21.20;60.77;101477.06;143725;599;47002;-71
2023/05/05 07:54:38;;;;;;;12.65;8.45;;;;;;;21.24;60.95;101488.31;143721;579;47010;-70
2023/05/05 07:57:04;;;;;;;14.95;9.40;;;;;;;21.26;61.54;101483.44;143720;601;47004;-71
2023/05/05 07:59:31;;;;;;;10.80;8.68;;;;;;;21.25;61.40;101479.06;143725;590;46924;-70
2023/05/05 08:01:57;;;;;;;14.23;8.90;;;;;;;21.24;61.65;101488.31;143724;572;47004;-71
2023/05/05 08:04:23;;;;;;;17.77;8.80;;;;;;;21.24;61.96;101496.53;143723;585;47010;-70
2023/05/05 08:06:50;;;;;;;18.35;9.32;;;;;;;21.23;62.50;101484.75;143721;788;47004;-70
2023/05/05 08:09:16;;;;;;;13.80;8.38;;;;;;;21.24;61.98;101491.88;143722;757;47924;-70
2023/05/05 08:11:42;;;;;;;12.43;8.93;;;;;;;21.27;62.50;101479.62;143724;596;47004;-71
2023/05/05 08:14:09;;;;;;;8.85;7.60;;;;;;;21.28;62.58;101487.56;143723;567;46010;-71
2023/05/05 08:16:35;;;;;;;11.57;7.12;;;;;;;21.32;61.64;101496.06;143721;567;47004;-70
2023/05/05 08:19:02;;;;;;;10.20;7.00;;;;;;;21.34;61.70;101502.97;143725;569;46006;-70
2023/05/05 08:21:28;;;;;;;14.45;6.97;;;;;;;21.38;61.83;101494.22;143722;638;48006;-71
2023/05/05 08:23:55;;;;;;;12.43;7.28;;;;;;;21.38;62.38;101491.50;143722;614;47008;-71
2023/05/05 08:26:21;;;;;;;7.50;5.43;;;;;;;21.33;61.32;101486.78;143724;603;47004;-71
2023/05/05 08:28:48;;;;;;;9.57;6.05;;;;;;;21.35;61.17;101482.75;143725;685;46006;-70
2023/05/05 08:31:14;;;;;;;9.95;6.00;;;;;;;21.32;61.08;101488.72;143723;599;47002;-71
2023/05/05 08:33:41;;;;;;;9.15;5.85;;;;;;;21.16;61.22;101484.94;143723;655;46921;-71
2023/05/05 08:36:07;;;;;;;10.90;7.40;;;;;;;21.13;61.70;101493.63;143723;593;47004;-71
2023/05/05 08:38:34;;;;;;;8.98;6.37;;;;;;;21.15;61.92;101501.59;143726;699;46013;-71
2023/05/05 08:41:00;;;;;;;10.55;6.93;;;;;;;21.16;62.25;101509.50;143726;606;47004;-70
2023/05/05 08:43:26;;;;;;;8.00;6.75;;;;;;;21.17;63.39;101499.44;143724;570;46010;-70
2023/05/05 08:45:55;;;;;;;9.93;7.18;;;;;;;21.18;63.08;101504.63;143725;712;46008;-70
2023/05/05 08:48:26;;;;;;;11.12;8.35;;;;;;;21.18;62.99;101503.81;143725;631;46006;-72
2023/05/05 08:50:58;;;;;;;9.38;6.40;;;;;;;21.17;61.98;101500.25;143724;570;47002;-71
2023/05/05 08:54:02;;;;;;;10.23;5.72;;;;;;;21.13;62.20;101490.06;143724;603;46011;-73
2023/05/05 08:56:37;;;;;;;9.75;6.53;;;;;;;21.11;61.66;101489.50;143723;582;47004;-72
2023/05/05 08:59:04;;;;;;;13.07;7.15;;;;;;;21.14;62.20;101489.81;143723;667;47007;-71
2023/05/05 09:01:32;;;;;;;11.70;7.25;;;;;;;21.21;62.73;101497.81;143726;567;47000;-72
2023/05/05 09:03:59;;;;;;;12.15;7.43;;;;;;;21.25;63.29;101498.19;143724;622;46010;-72
2023/05/05 09:06:26;;;;;;;9.85;6.90;;;;;;;21.28;63.73;101503.09;143722;597;47004;-71
2023/05/05 09:08:53;;;;;;;13.48;7.37;;;;;;;21.32;63.31;101501.53;143724;586;46006;-71
2023/05/05 09:11:21;;;;;;;12.35;8.02;;;;;;;21.33;63.18;101506.75;143726;741;47006;-72
2023/05/05 09:13:48;;;;;;;14.50;10.13;;;;;;;21.39;63.14;101499.47;143724;574;46922;-71
2023/05/05 09:16:15;;;;;;;11.52;9.23;;;;;;;21.41;62.72;101500.03;143723;639;47004;-72
2023/05/05 09:18:41;;;;;;;10.70;9.07;;;;;;;21.43;61.22;101484.22;143726;603;46006;-71
2023/05/05 09:21:24;;;;;;;11.55;9.55;;;;;;;21.44;59.58;101480.41;143726;582;47004;-70
2023/05/05 09:24:12;;;;;;;12.35;8.85;;;;;;;21.46;59.35;101493.81;143724;697;46922;-71
2023/05/05 09:26:43;;;;;;;11.82;8.63;;;;;;;21.49;59.73;101496.03;143723;568;47004;-70
2023/05/05 09:29:18;;;;;;;10.48;9.32;;;;;;;21.49;59.79;101502.31;143723;570;46007;-71
2023/05/05 09:31:58;;;;;;;11.25;9.10;;;;;;;21.51;60.42;101511.09;143723;726;47002;-71
2023/05/05 09:34:25;;;;;;;11.05;8.18;;;;;;;21.53;59.01;101505.41;143724;611;46010;-70
2023/05/05 09:36:51;;;;;;;11.95;7.60;;;;;;;21.54;57.61;101500.75;143723;574;47004;-72
2023/05/05 09:39:19;;;;;;;11.50;8.68;;;;;;;21.53;57.16;101505.41;143725;595;46020;-70
2023/05/05 09:41:46;;;;;;;13.65;10.02;;;;;;;21.51;57.89;101507.56;143724;602;47000;-72
2023/05/05 09:44:16;;;;;;;11.43;9.40;;;;;;;21.50;57.12;101511.34;143723;582;46010;-72
2023/05/05 09:46:54;;;;;;;18.92;15.23;;;;;;;21.50;58.50;101514.91;143723;737;47004;-76
2023/05/05 09:49:25;;;;;;;17.85;10.68;;;;;;;21.50;57.52;101500.44;143722;671;47006;-73
2023/05/05 09:51:52;;;;;;;11.60;10.40;;;;;;;21.53;57.12;101504.56;143724;573;47004;-73
2023/05/05 09:54:28;;;;;;;14.20;12.10;;;;;;;21.53;57.54;101485.41;143723;755;47008;-73
2023/05/05 09:56:56;;;;;;;13.48;10.80;;;;;;;21.57;56.80;101498.31;143720;684;47004;-73
2023/05/05 09:59:23;;;;;;;12.10;9.95;;;;;;;21.58;56.34;101497.25;143723;586;46914;-73
2023/05/05 10:01:50;;;;;;;11.68;10.48;;;;;;;21.61;56.51;101485.03;143715;568;48008;-72
2023/05/05 10:04:30;;;;;;;24.45;21.05;;;;;;;21.66;56.39;101471.37;143723;566;46012;-73
2023/05/05 10:06:57;;;;;;;26.15;22.55;;;;;;;21.68;55.06;101479.34;143721;662;47005;-72
2023/05/05 10:09:25;;;;;;;13.20;11.80;;;;;;;21.71;55.41;101460.53;143724;596;46921;-72
2023/05/05 10:11:52;;;;;;;12.15;10.95;;;;;;;21.74;55.65;101461.91;143725;583;47006;-75
2023/05/05 10:14:18;;;;;;;17.50;14.82;;;;;;;21.76;55.04;101457.03;143723;569;47012;-73
2023/05/05 10:16:54;;;;;;;17.83;16.02;;;;;;;21.77;54.99;101466.88;143723;677;47006;-73
2023/05/05 10:19:23;;;;;;;11.40;10.20;;;;;;;21.79;55.18;101461.97;143724;572;46004;-73
2023/05/05 10:21:53;;;;;;;14.95;13.00;;;;;;;21.81;56.20;101455.16;143724;570;47004;-75
2023/05/05 10:24:46;;;;;;;14.32;12.82;;;;;;;21.83;55.37;101443.97;143723;599;47006;-72
2023/05/05 10:27:18;;;;;;;11.57;8.10;;;;;;;21.84;55.30;101444.78;143721;567;49006;-73
2023/05/05 10:29:56;;;;;;;10.38;8.85;;;;;;;21.83;53.22;101438.50;143727;658;46024;-73
2023/05/05 10:32:31;;;;;;;16.45;7.93;;;;;;;21.78;53.08;101432.97;143725;731;47006;-74
2023/05/05 10:35:00;;;;;;;13.27;10.55;;;;;;;21.80;53.96;101422.63;143725;585;46012;-75
2023/05/05 10:37:28;;;;;;;10.75;8.57;;;;;;;21.80;53.14;101422.63;143723;568;47006;-75
2023/05/05 10:39:56;;;;;;;11.12;7.93;;;;;;;21.80;52.69;101431.62;143724;584;47008;-69
2023/05/05 10:42:23;;;;;;;11.88;7.90;;;;;;;21.81;52.96;101440.69;143725;578;47004;-69
2023/05/05 10:44:50;;;;;;;10.65;9.10;;;;;;;21.82;53.13;101442.34;143726;718;46011;-69
2023/05/05 10:47:19;;;;;;;11.63;8.55;;;;;;;21.81;52.62;101435.22;143723;595;47006;-68
2023/05/05 10:50:21;;;;;;;9.32;7.87;;;;;;;21.83;52.21;101424.00;143725;576;47008;-69
2023/05/05 10:53:18;;;;;;;10.15;8.73;;;;;;;21.87;51.90;101427.88;143727;668;47010;-69
2023/05/05 10:56:01;;;;;;;13.55;8.88;;;;;;;21.92;53.15;101419.72;143726;697;46010;-70
2023/05/05 10:58:35;;;;;;;10.27;8.40;;;;;;;21.92;52.29;101427.94;143724;770;47007;-68
2023/05/05 11:01:02;;;;;;;18.55;16.60;;;;;;;21.96;52.72;101412.66;143726;681;46008;-75
2023/05/05 11:03:29;;;;;;;11.95;9.60;;;;;;;22.04;53.69;101406.72;143724;588;47004;-67
2023/05/05 11:06:24;;;;;;;13.20;9.48;;;;;;;22.15;54.40;101406.84;143722;568;47012;-68
2023/05/05 11:08:50;;;;;;;11.70;9.95;;;;;;;22.20;53.30;101407.69;143750;663;46006;-70
2023/05/05 11:11:36;;;;;;;12.98;10.25;;;;;;;22.26;52.98;101398.44;143751;728;46008;-68
2023/05/05 11:14:22;;;;;;;11.65;10.55;;;;;;;22.30;52.24;101401.47;143752;597;46004;-69
2023/05/05 11:16:49;;;;;;;13.80;10.18;;;;;;;22.35;51.93;101396.03;143751;749;46012;-70
2023/05/05 11:19:46;;;;;;;12.25;9.73;;;;;;;22.41;52.91;101394.19;143750;712;46006;-69
2023/05/05 11:22:12;;;;;;;13.25;9.48;;;;;;;22.49;52.64;101387.44;143752;574;45009;-69
2023/05/05 11:24:41;;;;;;;13.82;10.32;;;;;;;22.51;52.52;101393.44;143752;589;46006;-69
2023/05/05 11:27:07;;;;;;;11.90;10.05;;;;;;;22.55;52.17;101387.19;143752;678;46010;-69
2023/05/05 11:30:07;;;;;;;9.73;8.73;;;;;;;22.60;51.42;101386.41;143750;597;46006;-69
2023/05/05 11:32:34;;;;;;;9.82;8.35;;;;;;;22.62;51.97;101392.44;143754;590;45008;-69
2023/05/05 11:35:01;;;;;;;9.75;8.75;;;;;;;22.65;51.29;101380.97;143753;572;46004;-68